Time;durP1;ratioP1;P1;durP2;ratioP2;P2;SDS_P1;SDS_P2;PMS_P1;PMS_P2;Temp;Humidity;BMP_temperature;BMP_pressure;BME280_temperature;BME280_humidity;BME280_pressure;Samples;Min_cycle;Max_cycle;Signal;HPM_P1;HPM_P2
2020/12/05 00:02:21;;;;;;;3.30;1.40;;;;;7.70;98977.00;;;;5097793;28;20200;-81
2020/12/05 00:04:48;;;;;;;3.40;1.85;;;;;7.80;98980.00;;;;5104296;28;20687;-80
2020/12/05 00:07:15;;;;;;;2.50;1.50;;;;;7.70;98982.00;;;;5093880;28;20248;-80
2020/12/05 00:09:42;;;;;;;2.17;1.38;;;;;7.70;98976.00;;;;5089345;28;20743;-80
2020/12/05 00:12:10;;;;;;;1.92;1.40;;;;;7.70;98979.00;;;;5089773;28;20544;-80
2020/12/05 00:14:38;;;;;;;2.60;1.83;;;;;7.70;98978.00;;;;5093246;28;20878;-80
2020/12/05 00:17:04;;;;;;;2.88;1.52;;;;;7.70;98981.00;;;;5087870;28;20198;-79
2020/12/05 00:19:31;;;;;;;2.40;1.58;;;;;7.70;98981.00;;;;5082487;28;20201;-80
2020/12/05 00:21:58;;;;;;;2.42;1.48;;;;;7.70;98986.00;;;;5092514;28;20596;-80
2020/12/05 00:24:26;;;;;;;2.22;1.25;;;;;7.70;98990.00;;;;5096025;28;20202;-80
2020/12/05 00:26:53;;;;;;;1.98;1.40;;;;;7.70;98977.00;;;;5089315;28;20210;-80
2020/12/05 00:29:20;;;;;;;1.70;1.15;;;;;7.70;98984.00;;;;5104644;28;20200;-80
2020/12/05 00:31:51;;;;;;;3.25;1.13;;;;;7.70;98994.00;;;;5108489;28;20567;-80
2020/12/05 00:34:18;;;;;;;3.83;1.58;;;;;7.70;99011.00;;;;5100366;28;20221;-80
2020/12/05 00:36:45;;;;;;;2.42;1.35;;;;;7.70;99014.00;;;;5099289;28;20212;-80
2020/12/05 00:39:12;;;;;;;2.63;1.65;;;;;7.70;99022.00;;;;5089245;28;20209;-80
2020/12/05 00:41:40;;;;;;;1.55;1.27;;;;;7.70;99021.00;;;;5088629;28;20198;-80
2020/12/05 00:44:07;;;;;;;1.85;1.20;;;;;7.70;99028.00;;;;5087915;28;20198;-80
2020/12/05 00:46:34;;;;;;;2.45;1.42;;;;;7.70;99026.00;;;;5089430;28;20190;-80
2020/12/05 00:49:01;;;;;;;2.38;1.63;;;;;7.70;99023.00;;;;5093056;28;20629;-80
2020/12/05 00:51:28;;;;;;;2.90;1.70;;;;;7.70;99031.00;;;;5090791;28;20698;-80
2020/12/05 00:53:55;;;;;;;3.28;1.45;;;;;7.60;99036.00;;;;5107582;28;20229;-80
2020/12/05 00:56:22;;;;;;;5.15;1.92;;;;;7.60;99028.00;;;;5089539;28;20698;-80
2020/12/05 00:58:49;;;;;;;2.47;1.13;;;;;7.70;99042.00;;;;5092884;28;20217;-80
2020/12/05 01:01:16;;;;;;;3.63;1.58;;;;;7.70;99053.00;;;;5088024;28;20194;-80
2020/12/05 01:03:44;;;;;;;1.92;1.27;;;;;7.70;99069.00;;;;5088615;28;20202;-80
2020/12/05 01:06:12;;;;;;;2.50;1.50;;;;;7.70;99064.00;;;;5087764;28;20198;-80
2020/12/05 01:08:40;;;;;;;2.53;1.42;;;;;7.70;99064.00;;;;5095280;28;20205;-80
2020/12/05 01:11:11;;;;;;;2.92;1.60;;;;;7.70;99073.00;;;;5107382;28;20208;-80
2020/12/05 01:13:38;;;;;;;2.67;1.33;;;;;7.70;99071.00;;;;5106284;28;20270;-80
2020/12/05 01:16:04;;;;;;;2.85;1.45;;;;;7.70;99072.00;;;;5089903;28;20208;-80
2020/12/05 01:18:31;;;;;;;2.60;1.33;;;;;7.70;99073.00;;;;5099219;28;20225;-80
2020/12/05 01:20:58;;;;;;;2.10;1.35;;;;;7.70;99072.00;;;;5088229;28;20205;-80
2020/12/05 01:23:25;;;;;;;3.40;1.50;;;;;7.70;99073.00;;;;5089036;28;20205;-80
2020/12/05 01:25:52;;;;;;;1.92;1.40;;;;;7.70;99069.00;;;;5093111;28;20225;-80
2020/12/05 01:28:19;;;;;;;1.92;1.58;;;;;7.70;99073.00;;;;5108961;28;20564;-80
2020/12/05 01:30:46;;;;;;;1.90;1.17;;;;;7.70;99070.00;;;;5105805;28;20216;-80
2020/12/05 01:33:12;;;;;;;2.83;1.67;;;;;7.70;99063.00;;;;5098577;28;20695;-80
2020/12/05 01:35:39;;;;;;;1.95;1.23;;;;;7.70;99065.00;;;;5086884;28;20194;-80
2020/12/05 01:38:06;;;;;;;2.72;1.75;;;;;7.70;99060.00;;;;5088448;28;20198;-80
2020/12/05 01:40:33;;;;;;;2.10;1.60;;;;;7.70;99063.00;;;;5089027;28;20190;-80
2020/12/05 01:43:00;;;;;;;3.83;2.03;;;;;7.70;99061.00;;;;5087722;28;20292;-80
2020/12/05 01:45:27;;;;;;;2.58;1.52;;;;;7.70;99064.00;;;;5091830;28;20204;-80
2020/12/05 01:47:54;;;;;;;2.75;1.75;;;;;7.70;99070.00;;;;5098317;28;20208;-80
2020/12/05 01:50:22;;;;;;;2.65;1.55;;;;;7.70;99068.00;;;;5088056;28;20210;-80
2020/12/05 01:52:49;;;;;;;2.00;1.50;;;;;7.60;99072.00;;;;5087762;28;20206;-80
2020/12/05 01:55:16;;;;;;;2.20;1.50;;;;;7.60;99069.00;;;;5094167;28;20239;-80
2020/12/05 01:57:43;;;;;;;3.03;1.88;;;;;7.60;99070.00;;;;5097528;28;20711;-80
2020/12/05 02:00:10;;;;;;;3.70;1.50;;;;;7.60;99074.00;;;;5088274;28;20198;-80
2020/12/05 02:02:37;;;;;;;2.50;1.30;;;;;7.60;99073.00;;;;5087879;28;20280;-80
2020/12/05 02:05:13;;;;;;;2.80;1.50;;;;;7.50;99077.00;;;;5088162;28;20203;-80
2020/12/05 02:07:47;;;;;;;4.13;1.20;;;;;7.50;99079.00;;;;5088924;28;20205;-80
2020/12/05 02:10:23;;;;;;;2.35;1.70;;;;;7.50;99074.00;;;;5087019;28;20579;-80
2020/12/05 02:12:57;;;;;;;2.15;1.35;;;;;7.50;99075.00;;;;5087959;28;21173;-79
2020/12/05 02:15:28;;;;;;;1.98;1.30;;;;;7.50;99088.00;;;;5088287;28;20233;-79
2020/12/05 02:18:00;;;;;;;3.05;1.60;;;;;7.40;99086.00;;;;5086706;28;20602;-79
2020/12/05 02:20:29;;;;;;;2.30;1.30;;;;;7.40;99094.00;;;;5098534;28;20292;-80
2020/12/05 02:22:56;;;;;;;1.90;1.38;;;;;7.40;99086.00;;;;5066929;28;20199;-79
2020/12/05 02:25:24;;;;;;;2.53;1.50;;;;;7.40;99091.00;;;;5080809;28;20605;-80
2020/12/05 02:27:51;;;;;;;2.60;1.70;;;;;7.40;99088.00;;;;5095818;28;20204;-80
2020/12/05 02:30:18;;;;;;;2.35;1.40;;;;;7.40;99093.00;;;;5097716;28;20202;-80
2020/12/05 02:32:45;;;;;;;1.52;1.20;;;;;7.30;99098.00;;;;5086773;28;20195;-79
2020/12/05 02:35:11;;;;;;;3.63;1.52;;;;;7.30;99103.00;;;;5092932;28;20237;-80
2020/12/05 02:37:46;;;;;;;2.65;1.40;;;;;7.30;99101.00;;;;5087304;28;20198;-79
2020/12/05 02:40:13;;;;;;;1.98;1.17;;;;;7.30;99102.00;;;;5089820;28;20217;-80
2020/12/05 02:42:40;;;;;;;2.35;1.02;;;;;7.30;99102.00;;;;5101556;28;20208;-80
2020/12/05 02:45:10;;;;;;;2.40;1.20;;;;;7.20;99099.00;;;;5098808;28;20295;-80
2020/12/05 02:47:37;;;;;;;2.67;1.40;;;;;7.20;99093.00;;;;5090672;28;20303;-79
2020/12/05 02:50:05;;;;;;;3.47;1.73;;;;;7.20;99102.00;;;;5090424;28;20221;-79
2020/12/05 02:52:32;;;;;;;2.17;1.48;;;;;7.20;99095.00;;;;5092168;28;20601;-80
2020/12/05 02:54:58;;;;;;;2.80;1.40;;;;;7.20;99090.00;;;;5091418;28;20221;-79
2020/12/05 02:57:25;;;;;;;2.25;1.25;;;;;7.20;99096.00;;;;5101147;28;20599;-80
2020/12/05 02:59:53;;;;;;;2.10;1.48;;;;;7.20;99089.00;;;;5092050;28;20216;-80
2020/12/05 03:02:20;;;;;;;2.90;1.52;;;;;7.20;99093.00;;;;5090382;28;20198;-80
2020/12/05 03:04:46;;;;;;;1.63;1.40;;;;;7.10;99089.00;;;;5098160;28;20738;-79
2020/12/05 03:07:15;;;;;;;2.25;1.50;;;;;7.10;99089.00;;;;5111012;28;21271;-79
2020/12/05 03:09:42;;;;;;;2.03;1.50;;;;;7.10;99090.00;;;;5108930;28;20212;-79
2020/12/05 03:12:09;;;;;;;1.73;1.17;;;;;7.10;99089.00;;;;5095996;28;20236;-80
2020/12/05 03:14:35;;;;;;;1.58;1.23;;;;;7.10;99096.00;;;;5107218;28;20228;-79
2020/12/05 03:17:03;;;;;;;2.75;1.65;;;;;7.10;99092.00;;;;5091151;28;20202;-79
2020/12/05 03:19:30;;;;;;;2.40;1.42;;;;;7.10;99096.00;;;;5091247;28;20201;-80
2020/12/05 03:21:56;;;;;;;2.08;1.30;;;;;7.10;99089.00;;;;5090406;28;20660;-79
2020/12/05 03:24:23;;;;;;;3.42;1.10;;;;;7.00;99083.00;;;;5097658;28;20198;-79
2020/12/05 03:26:50;;;;;;;2.33;1.58;;;;;7.00;99085.00;;;;5092110;28;20638;-80
2020/12/05 03:29:16;;;;;;;3.10;1.58;;;;;7.00;99082.00;;;;5081650;28;20206;-80
2020/12/05 03:31:52;;;;;;;2.08;1.33;;;;;7.00;99092.00;;;;5102322;28;20205;-79
2020/12/05 03:34:20;;;;;;;2.80;1.25;;;;;7.00;99080.00;;;;5095575;28;20669;-80
2020/12/05 03:36:46;;;;;;;3.30;1.38;;;;;7.00;99093.00;;;;5089374;28;20202;-80
2020/12/05 03:39:13;;;;;;;2.33;1.20;;;;;7.00;99092.00;;;;5102366;28;20197;-80
2020/12/05 03:41:40;;;;;;;3.25;1.45;;;;;7.00;99093.00;;;;5097286;28;20202;-80
2020/12/05 03:44:07;;;;;;;1.98;1.20;;;;;7.00;99099.00;;;;5089256;28;20182;-80
2020/12/05 03:46:34;;;;;;;3.25;1.52;;;;;7.00;99090.00;;;;5099121;28;20200;-80
2020/12/05 03:49:00;;;;;;;2.33;1.33;;;;;7.00;99098.00;;;;5089776;28;20217;-79
2020/12/05 03:51:28;;;;;;;2.83;1.52;;;;;6.90;99096.00;;;;5089554;28;20206;-80
2020/12/05 03:53:55;;;;;;;1.80;1.33;;;;;7.00;99101.00;;;;5094626;28;20206;-79
2020/12/05 03:56:22;;;;;;;3.85;1.35;;;;;7.00;99100.00;;;;5090411;28;20194;-79
2020/12/05 03:58:50;;;;;;;2.22;1.48;;;;;7.00;99101.00;;;;5088803;28;20231;-80
2020/12/05 04:01:17;;;;;;;10.07;1.42;;;;;7.00;99096.00;;;;5095407;28;20205;-80
2020/12/05 04:03:44;;;;;;;1.60;1.42;;;;;7.00;99097.00;;;;5106671;28;20194;-79
2020/12/05 04:06:12;;;;;;;1.45;1.17;;;;;7.00;99091.00;;;;5089326;28;20652;-79
2020/12/05 04:08:40;;;;;;;2.47;1.45;;;;;7.00;99090.00;;;;5091110;28;20253;-79
2020/12/05 04:11:07;;;;;;;1.90;1.13;;;;;7.00;99086.00;;;;5095728;28;20194;-80
2020/12/05 04:13:34;;;;;;;1.83;1.35;;;;;7.00;99087.00;;;;5105961;28;20604;-79
2020/12/05 04:16:00;;;;;;;3.25;1.70;;;;;7.00;99092.00;;;;5089596;28;20670;-79
2020/12/05 04:18:27;;;;;;;3.13;1.98;;;;;7.00;99098.00;;;;5103495;28;20243;-79
2020/12/05 04:20:54;;;;;;;1.85;1.20;;;;;7.00;99102.00;;;;5104050;28;20577;-80
2020/12/05 04:23:20;;;;;;;2.42;1.30;;;;;7.00;99111.00;;;;5097045;28;20197;-79
2020/12/05 04:25:48;;;;;;;2.78;1.30;;;;;7.00;99115.00;;;;5095743;28;20209;-80
2020/12/05 04:28:15;;;;;;;3.15;1.50;;;;;7.00;99120.00;;;;5090427;28;20194;-79
2020/12/05 04:30:41;;;;;;;1.42;1.02;;;;;7.00;99122.00;;;;5106600;28;20209;-80
2020/12/05 04:33:08;;;;;;;2.00;1.73;;;;;6.90;99127.00;;;;5109706;28;20190;-80
2020/12/05 04:35:35;;;;;;;2.63;1.10;;;;;6.90;99130.00;;;;5109356;28;20308;-80
2020/12/05 04:38:02;;;;;;;2.28;1.30;;;;;6.90;99128.00;;;;5108865;28;20577;-79
2020/12/05 04:40:28;;;;;;;3.63;1.92;;;;;6.90;99133.00;;;;5102076;28;20206;-79
2020/12/05 04:42:56;;;;;;;2.72;1.70;;;;;6.90;99134.00;;;;5090190;28;20193;-79
2020/12/05 04:45:23;;;;;;;2.42;0.98;;;;;6.90;99137.00;;;;5089181;28;20206;-80
2020/12/05 04:47:51;;;;;;;3.17;1.73;;;;;6.90;99135.00;;;;5088082;28;20194;-80
2020/12/05 04:50:20;;;;;;;3.25;1.35;;;;;6.90;99134.00;;;;5081283;28;20226;-80
2020/12/05 04:52:49;;;;;;;1.73;1.40;;;;;6.90;99136.00;;;;5082896;28;20194;-81
2020/12/05 04:55:16;;;;;;;1.75;1.08;;;;;6.90;99142.00;;;;5089584;28;20222;-80
2020/12/05 04:57:47;;;;;;;3.33;1.55;;;;;6.90;99146.00;;;;5079860;28;20234;-80
2020/12/05 05:00:16;;;;;;;2.65;1.52;;;;;6.90;99143.00;;;;5083077;28;20187;-80
2020/12/05 05:02:45;;;;;;;1.95;1.33;;;;;6.90;99144.00;;;;5092292;28;20190;-80
2020/12/05 05:05:14;;;;;;;2.08;1.35;;;;;6.90;99139.00;;;;5075101;28;20245;-80
2020/12/05 05:07:48;;;;;;;2.45;1.38;;;;;6.90;99147.00;;;;5081126;28;20209;-80
2020/12/05 05:10:24;;;;;;;2.55;1.30;;;;;6.80;99149.00;;;;5088919;28;20190;-80
2020/12/05 05:12:52;;;;;;;5.40;1.40;;;;;6.90;99149.00;;;;5090041;28;20196;-80
2020/12/05 05:15:30;;;;;;;2.00;1.48;;;;;6.80;99151.00;;;;5087723;28;20236;-80
2020/12/05 05:17:58;;;;;;;2.35;1.38;;;;;6.90;99158.00;;;;5080197;28;20198;-80
2020/12/05 05:20:26;;;;;;;3.15;1.88;;;;;6.90;99152.00;;;;5083089;28;20660;-80
2020/12/05 05:23:11;;;;;;;2.50;1.45;;;;;6.80;99157.00;;;;5071568;28;20210;-80
2020/12/05 05:25:58;;;;;;;1.58;1.10;;;;;6.80;99158.00;;;;5098807;28;20198;-80
2020/12/05 05:28:28;;;;;;;2.13;1.20;;;;;6.90;99162.00;;;;5089404;28;20691;-80
2020/12/05 05:31:17;;;;;;;3.35;1.58;;;;;6.80;99166.00;;;;5083821;28;20198;-80
2020/12/05 05:33:46;;;;;;;1.83;1.33;;;;;6.90;99168.00;;;;5085181;28;20202;-80
2020/12/05 05:36:21;;;;;;;2.88;1.48;;;;;6.80;99164.00;;;;5088149;28;20205;-80
2020/12/05 05:39:04;;;;;;;1.58;1.27;;;;;6.80;99169.00;;;;5073040;28;20190;-80
2020/12/05 05:41:31;;;;;;;2.13;1.33;;;;;6.90;99187.00;;;;5082191;28;20194;-80
2020/12/05 05:44:00;;;;;;;2.13;1.20;;;;;6.90;99179.00;;;;5081428;28;20948;-80
2020/12/05 05:46:30;;;;;;;1.67;0.98;;;;;6.90;99181.00;;;;5082759;28;20202;-80
2020/12/05 05:48:58;;;;;;;4.45;1.40;;;;;6.90;99182.00;;;;5078880;28;20202;-80
2020/12/05 05:51:42;;;;;;;1.27;1.08;;;;;6.80;99186.00;;;;5071097;28;20206;-80
2020/12/05 05:54:19;;;;;;;3.15;1.50;;;;;6.90;99193.00;;;;5086999;28;20695;-80
2020/12/05 05:57:03;;;;;;;1.85;1.30;;;;;6.90;99183.00;;;;5085495;28;20221;-80
2020/12/05 05:59:32;;;;;;;2.08;1.05;;;;;6.90;99184.00;;;;5087122;28;20237;-80
2020/12/05 06:02:01;;;;;;;2.42;1.33;;;;;6.90;99184.00;;;;5100075;28;20186;-79
2020/12/05 06:04:31;;;;;;;1.70;1.38;;;;;6.90;99182.00;;;;5088469;28;20717;-80
2020/12/05 06:06:59;;;;;;;2.03;1.17;;;;;6.90;99187.00;;;;5088534;28;20228;-80
2020/12/05 06:09:29;;;;;;;2.25;1.75;;;;;6.90;99185.00;;;;5089923;28;20202;-80
2020/12/05 06:11:57;;;;;;;2.30;1.27;;;;;6.90;99186.00;;;;5093803;28;20189;-80
2020/12/05 06:14:25;;;;;;;1.83;1.17;;;;;6.90;99193.00;;;;5090410;28;20229;-80
2020/12/05 06:16:54;;;;;;;2.58;1.20;;;;;6.90;99185.00;;;;5091017;28;20197;-80
2020/12/05 06:19:23;;;;;;;4.32;1.67;;;;;6.90;99186.00;;;;5091743;28;20212;-80
2020/12/05 06:21:52;;;;;;;1.92;1.50;;;;;6.90;99190.00;;;;5087939;28;20202;-80
2020/12/05 06:24:41;;;;;;;1.88;1.40;;;;;6.90;99195.00;;;;5091824;28;20206;-80
2020/12/05 06:27:09;;;;;;;2.92;1.33;;;;;6.90;99192.00;;;;5092273;28;20194;-80
2020/12/05 06:29:38;;;;;;;2.15;1.70;;;;;6.90;99198.00;;;;5089924;28;20186;-80
2020/12/05 06:32:06;;;;;;;1.80;1.45;;;;;6.90;99198.00;;;;5086624;28;20293;-80
2020/12/05 06:34:36;;;;;;;2.42;1.27;;;;;6.90;99194.00;;;;5085628;28;20221;-80
2020/12/05 06:37:03;;;;;;;2.17;1.70;;;;;6.90;99191.00;;;;5072738;28;20210;-80
2020/12/05 06:39:30;;;;;;;2.10;1.70;;;;;6.90;99203.00;;;;5080494;28;20548;-80
2020/12/05 06:41:58;;;;;;;2.00;1.77;;;;;6.90;99197.00;;;;5083418;28;20221;-80
2020/12/05 06:44:35;;;;;;;1.73;1.42;;;;;6.90;99218.00;;;;5080199;28;20204;-80
2020/12/05 06:47:03;;;;;;;3.00;1.60;;;;;6.90;99224.00;;;;5090339;28;20214;-80
2020/12/05 06:50:01;;;;;;;4.70;2.33;;;;;6.80;99226.00;;;;5097110;28;20209;-80
2020/12/05 06:52:38;;;;;;;3.00;1.80;;;;;6.90;99232.00;;;;5091594;28;20194;-80
2020/12/05 06:55:15;;;;;;;2.85;2.15;;;;;6.90;99236.00;;;;5090122;28;20229;-80
2020/12/05 06:57:43;;;;;;;14.38;2.03;;;;;6.90;99250.00;;;;5101232;28;20240;-81
2020/12/05 07:00:19;;;;;;;3.85;2.30;;;;;6.90;99246.00;;;;5100969;28;20208;-81
2020/12/05 07:02:53;;;;;;;3.38;1.90;;;;;6.90;99250.00;;;;5090370;28;20198;-80
2020/12/05 07:05:39;;;;;;;3.03;1.20;;;;;6.90;99264.00;;;;5096964;28;20201;-81
2020/12/05 07:08:37;;;;;;;2.10;1.60;;;;;7.00;99274.00;;;;5101453;28;20190;-81
2020/12/05 07:11:07;;;;;;;2.33;1.58;;;;;7.10;99277.00;;;;5084938;28;20202;-80
2020/12/05 07:13:42;;;;;;;2.45;2.00;;;;;7.10;99289.00;;;;5091987;28;20206;-80
2020/12/05 07:16:13;;;;;;;1.48;1.25;;;;;7.10;99289.00;;;;5092727;28;20205;-80
2020/12/05 07:18:41;;;;;;;3.40;1.60;;;;;7.20;99291.00;;;;5090038;28;20276;-81
2020/12/05 07:21:09;;;;;;;3.63;1.73;;;;;7.20;99298.00;;;;5089610;28;20298;-81
2020/12/05 07:23:36;;;;;;;3.40;2.00;;;;;7.30;99295.00;;;;5098416;28;20190;-80
2020/12/05 07:26:04;;;;;;;3.28;2.22;;;;;7.30;99293.00;;;;5090318;28;20206;-81
2020/12/05 07:28:31;;;;;;;2.58;1.90;;;;;7.30;99311.00;;;;5102022;28;20677;-81
2020/12/05 07:30:58;;;;;;;4.60;2.03;;;;;7.40;99323.00;;;;5089145;28;20543;-81
2020/12/05 07:33:26;;;;;;;4.40;2.38;;;;;7.40;99330.00;;;;5093454;28;20217;-80
2020/12/05 07:36:04;;;;;;;2.75;2.22;;;;;7.30;99331.00;;;;5093341;28;21160;-81
2020/12/05 07:38:33;;;;;;;3.72;2.47;;;;;7.40;99334.00;;;;5089420;28;20202;-81
2020/12/05 07:41:08;;;;;;;3.92;2.33;;;;;7.50;99336.00;;;;5090773;28;20714;-81
2020/12/05 07:43:35;;;;;;;5.45;2.50;;;;;7.50;99341.00;;;;5080877;28;20222;-81
2020/12/05 07:46:04;;;;;;;2.60;2.25;;;;;7.50;99347.00;;;;5079230;28;20672;-81
2020/12/05 07:48:31;;;;;;;3.03;2.17;;;;;7.50;99363.00;;;;5082759;28;20204;-80
2020/12/05 07:50:58;;;;;;;3.05;2.38;;;;;7.50;99369.00;;;;5086809;28;20222;-81
2020/12/05 07:53:30;;;;;;;3.88;2.83;;;;;7.50;99367.00;;;;5087997;28;20217;-81
2020/12/05 07:55:59;;;;;;;3.55;2.45;;;;;7.60;99368.00;;;;5085961;28;20569;-80
2020/12/05 07:58:26;;;;;;;4.25;2.78;;;;;7.60;99371.00;;;;5085017;28;20232;-80
2020/12/05 08:00:55;;;;;;;3.50;2.63;;;;;7.60;99369.00;;;;5074537;28;21906;-81
2020/12/05 08:03:55;;;;;;;4.43;2.78;;;;;7.60;99378.00;;;;5081561;28;20655;-80
2020/12/05 08:06:34;;;;;;;4.28;2.45;;;;;7.70;99384.00;;;;5086911;28;20202;-80
2020/12/05 08:09:04;;;;;;;3.85;2.83;;;;;7.70;99392.00;;;;5087421;28;20202;-80
2020/12/05 08:11:49;;;;;;;3.00;2.42;;;;;7.70;99401.00;;;;5089824;28;20660;-79
2020/12/05 08:14:17;;;;;;;5.47;2.58;;;;;7.80;99406.00;;;;5089317;28;20221;-80
2020/12/05 08:16:44;;;;;;;4.10;2.72;;;;;7.80;99411.00;;;;5091693;28;20468;-80
2020/12/05 08:19:11;;;;;;;3.70;2.65;;;;;7.90;99418.00;;;;5090376;28;20214;-80
2020/12/05 08:21:38;;;;;;;3.70;2.70;;;;;7.90;99420.00;;;;5088617;28;20206;-80
2020/12/05 08:24:10;;;;;;;2.83;2.25;;;;;7.90;99419.00;;;;5091644;28;20635;-80
2020/12/05 08:26:38;;;;;;;3.10;2.45;;;;;8.00;99421.00;;;;5089720;28;20573;-80
2020/12/05 08:29:08;;;;;;;3.83;2.40;;;;;8.00;99426.00;;;;5088619;28;20214;-80
2020/12/05 08:31:40;;;;;;;4.32;2.63;;;;;8.00;99428.00;;;;5089593;28;20202;-80
2020/12/05 08:34:07;;;;;;;3.20;2.42;;;;;8.10;99414.00;;;;5089258;28;20220;-80
2020/12/05 08:36:36;;;;;;;4.80;2.42;;;;;8.10;99414.00;;;;5088555;28;20214;-80
2020/12/05 08:39:06;;;;;;;4.03;2.60;;;;;8.10;99411.00;;;;5087487;28;20198;-80
2020/12/05 08:41:43;;;;;;;2.58;2.38;;;;;8.10;99417.00;;;;5084591;28;20212;-80
2020/12/05 08:44:13;;;;;;;3.67;2.50;;;;;8.20;99414.00;;;;5086357;28;20202;-80
2020/12/05 08:46:40;;;;;;;3.42;2.58;;;;;8.20;99417.00;;;;5089547;28;20190;-80
2020/12/05 08:49:17;;;;;;;4.18;2.92;;;;;8.10;99421.00;;;;5085219;28;20218;-80
2020/12/05 08:51:47;;;;;;;4.60;2.17;;;;;8.20;99429.00;;;;5087636;28;20190;-79
2020/12/05 08:54:14;;;;;;;2.92;2.10;;;;;8.20;99429.00;;;;5100265;28;20250;-79
2020/12/05 08:56:41;;;;;;;3.70;2.63;;;;;8.30;99434.00;;;;5091406;28;20222;-79
2020/12/05 08:59:08;;;;;;;3.92;2.65;;;;;8.30;99430.00;;;;5088195;28;20214;-78
2020/12/05 09:01:40;;;;;;;3.35;2.42;;;;;8.30;99438.00;;;;5086183;28;20195;-79
2020/12/05 09:04:07;;;;;;;3.45;2.35;;;;;8.30;99446.00;;;;5084850;28;20202;-79
2020/12/05 09:06:34;;;;;;;2.72;1.92;;;;;8.40;99450.00;;;;5088378;28;20198;-79
2020/12/05 09:09:01;;;;;;;3.47;2.55;;;;;8.40;99457.00;;;;5096610;28;20682;-80
2020/12/05 09:11:28;;;;;;;4.03;2.67;;;;;8.40;99457.00;;;;5097706;28;20205;-79
2020/12/05 09:13:55;;;;;;;4.13;2.80;;;;;8.40;99456.00;;;;5096715;28;20194;-79
2020/12/05 09:16:31;;;;;;;4.30;2.92;;;;;8.40;99458.00;;;;5103930;28;20214;-79
2020/12/05 09:18:59;;;;;;;3.25;2.33;;;;;8.40;99469.00;;;;5088416;28;20579;-80
2020/12/05 09:21:25;;;;;;;2.95;2.65;;;;;8.50;99454.00;;;;5087869;28;20198;-79
2020/12/05 09:23:59;;;;;;;5.72;3.30;;;;;8.50;99463.00;;;;5088579;28;20574;-80
2020/12/05 09:26:26;;;;;;;2.60;2.15;;;;;8.50;99466.00;;;;5087160;28;20312;-80
2020/12/05 09:28:53;;;;;;;4.15;3.10;;;;;8.60;99474.00;;;;5088099;28;20202;-80
2020/12/05 09:31:20;;;;;;;3.55;2.80;;;;;8.60;99479.00;;;;5086921;28;20225;-80
2020/12/05 09:33:47;;;;;;;3.63;2.80;;;;;8.60;99488.00;;;;5087687;28;20217;-80
2020/12/05 09:36:15;;;;;;;5.10;2.75;;;;;8.70;99492.00;;;;5087999;28;20225;-80
2020/12/05 09:38:41;;;;;;;4.25;2.95;;;;;8.70;99498.00;;;;5086353;28;20457;-79
2020/12/05 09:41:08;;;;;;;3.53;2.70;;;;;8.70;99511.00;;;;5087933;28;20668;-80
2020/12/05 09:43:35;;;;;;;4.25;2.95;;;;;8.80;99511.00;;;;5088867;28;20198;-80
2020/12/05 09:46:02;;;;;;;4.00;2.72;;;;;8.80;99508.00;;;;5092495;28;20875;-81
2020/12/05 09:48:28;;;;;;;4.22;2.90;;;;;8.90;99513.00;;;;5093229;28;20586;-81
2020/12/05 09:50:58;;;;;;;4.22;3.15;;;;;8.90;99519.00;;;;5087578;28;20218;-81
2020/12/05 09:53:25;;;;;;;3.53;2.53;;;;;8.90;99510.00;;;;5083659;28;20610;-80
2020/12/05 09:55:52;;;;;;;2.95;2.25;;;;;9.00;99516.00;;;;5088379;28;20282;-81
2020/12/05 09:58:19;;;;;;;2.95;2.15;;;;;9.00;99510.00;;;;5087492;28;20639;-79
2020/12/05 10:00:45;;;;;;;3.88;2.85;;;;;9.10;99508.00;;;;5078885;28;20191;-80
2020/12/05 10:03:12;;;;;;;4.32;2.58;;;;;9.10;99511.00;;;;5088947;28;20202;-81
2020/12/05 10:05:39;;;;;;;4.05;2.95;;;;;9.20;99515.00;;;;5087893;28;20194;-80
2020/12/05 10:08:05;;;;;;;3.80;2.72;;;;;9.20;99510.00;;;;5088407;28;20627;-81
2020/12/05 10:10:33;;;;;;;3.58;2.38;;;;;9.30;99504.00;;;;5088179;28;20216;-81
2020/12/05 10:13:00;;;;;;;3.55;2.58;;;;;9.30;99507.00;;;;5088455;28;20210;-80
2020/12/05 10:15:26;;;;;;;3.35;2.70;;;;;9.40;99505.00;;;;5090384;28;20229;-81
2020/12/05 10:17:53;;;;;;;3.72;2.65;;;;;9.40;99501.00;;;;5091436;28;20198;-79
2020/12/05 10:20:20;;;;;;;3.22;2.80;;;;;9.40;99505.00;;;;5088056;28;20206;-78
2020/12/05 10:22:46;;;;;;;5.47;3.50;;;;;9.50;99506.00;;;;5087525;28;20206;-78
2020/12/05 10:25:13;;;;;;;4.88;3.30;;;;;9.50;99507.00;;;;5087930;28;20209;-78
2020/12/05 10:27:41;;;;;;;3.88;2.78;;;;;9.60;99502.00;;;;5089815;28;20216;-78
2020/12/05 10:30:09;;;;;;;5.13;3.25;;;;;9.60;99508.00;;;;5107548;28;20205;-79
2020/12/05 10:32:37;;;;;;;4.03;3.05;;;;;9.70;99509.00;;;;5088530;28;20199;-78
2020/12/05 10:35:04;;;;;;;3.03;2.25;;;;;9.70;99498.00;;;;5087819;28;20222;-78
2020/12/05 10:37:30;;;;;;;4.10;2.85;;;;;9.80;99500.00;;;;5086733;28;20198;-77
2020/12/05 10:39:57;;;;;;;3.38;2.50;;;;;9.80;99499.00;;;;5101040;28;20695;-77
2020/12/05 10:42:24;;;;;;;3.83;2.85;;;;;9.80;99504.00;;;;5103384;28;20218;-78
2020/12/05 10:44:52;;;;;;;3.03;2.17;;;;;9.90;99514.00;;;;5089560;28;20202;-78
2020/12/05 10:47:19;;;;;;;4.50;3.13;;;;;9.90;99511.00;;;;5087589;28;20259;-78
2020/12/05 10:49:45;;;;;;;3.95;2.70;;;;;10.00;99506.00;;;;5104406;28;20214;-78
2020/12/05 10:52:12;;;;;;;4.78;2.70;;;;;10.00;99508.00;;;;5095451;28;20198;-79
2020/12/05 10:54:39;;;;;;;3.90;2.63;;;;;10.10;99509.00;;;;5098526;28;20279;-78
2020/12/05 10:57:06;;;;;;;8.90;2.70;;;;;10.10;99514.00;;;;5087045;28;20899;-78
2020/12/05 10:59:33;;;;;;;4.35;2.30;;;;;10.20;99520.00;;;;5085832;28;20236;-78
2020/12/05 11:02:00;;;;;;;3.50;2.08;;;;;10.20;99521.00;;;;5090243;28;20198;-78
2020/12/05 11:04:27;;;;;;;3.85;2.80;;;;;10.20;99526.00;;;;5088954;28;20203;-78
2020/12/05 11:06:55;;;;;;;3.50;2.55;;;;;10.30;99529.00;;;;5093479;28;20198;-78
2020/12/05 11:09:22;;;;;;;5.50;2.80;;;;;10.30;99522.00;;;;5086938;28;20575;-79
2020/12/05 11:11:48;;;;;;;3.30;2.40;;;;;10.40;99523.00;;;;5089939;28;20206;-80
2020/12/05 11:14:15;;;;;;;3.15;2.45;;;;;10.40;99517.00;;;;5108982;28;20251;-78
2020/12/05 11:16:42;;;;;;;2.10;1.80;;;;;10.40;99522.00;;;;5110514;28;20193;-79
2020/12/05 11:19:09;;;;;;;4.40;2.55;;;;;10.50;99533.00;;;;5093219;28;20194;-78
2020/12/05 11:21:36;;;;;;;2.95;1.88;;;;;10.50;99536.00;;;;5092128;28;20198;-79
2020/12/05 11:24:03;;;;;;;3.15;2.20;;;;;10.60;99534.00;;;;5090991;28;20564;-78
2020/12/05 11:26:29;;;;;;;5.38;2.95;;;;;10.60;99545.00;;;;5088970;28;20608;-78
2020/12/05 11:28:56;;;;;;;4.20;2.80;;;;;10.70;99548.00;;;;5089683;28;20239;-78
2020/12/05 11:31:23;;;;;;;3.85;2.25;;;;;10.80;99549.00;;;;5089664;28;20699;-78
2020/12/05 11:33:50;;;;;;;3.05;2.17;;;;;10.80;99546.00;;;;5090234;28;20205;-78
2020/12/05 11:36:17;;;;;;;4.05;2.10;;;;;10.90;99550.00;;;;5090480;28;20691;-77
2020/12/05 11:38:44;;;;;;;2.83;2.08;;;;;11.00;99556.00;;;;5089972;28;20582;-78
2020/12/05 11:41:11;;;;;;;2.20;1.70;;;;;11.10;99572.00;;;;5089067;28;20198;-77
2020/12/05 11:43:37;;;;;;;2.60;2.38;;;;;11.10;99581.00;;;;5090970;28;20198;-80
2020/12/05 11:46:04;;;;;;;9.50;2.20;;;;;11.20;99585.00;;;;5089823;28;20978;-80
2020/12/05 11:48:31;;;;;;;2.50;1.90;;;;;11.30;99599.00;;;;5091041;28;20526;-77
2020/12/05 11:50:57;;;;;;;2.78;1.75;;;;;11.30;99592.00;;;;5089766;28;20210;-77
2020/12/05 11:53:25;;;;;;;4.18;2.03;;;;;11.40;99586.00;;;;5089973;28;20205;-77
2020/12/05 11:55:52;;;;;;;2.63;1.60;;;;;11.40;99596.00;;;;5089696;28;20218;-77
2020/12/05 11:58:19;;;;;;;4.03;2.00;;;;;11.50;99605.00;;;;5085719;28;20286;-79
2020/12/05 12:00:46;;;;;;;3.42;2.30;;;;;11.50;99605.00;;;;5070819;28;20206;-78
2020/12/05 12:03:12;;;;;;;2.15;1.88;;;;;11.50;99605.00;;;;5089075;28;20206;-77
2020/12/05 12:05:39;;;;;;;2.65;1.90;;;;;11.60;99601.00;;;;5106009;28;20209;-77
2020/12/05 12:08:06;;;;;;;3.30;1.98;;;;;11.60;99593.00;;;;5112796;28;20204;-78
2020/12/05 12:10:34;;;;;;;2.50;1.73;;;;;11.60;99598.00;;;;5110592;28;20198;-78
2020/12/05 12:13:00;;;;;;;2.42;1.80;;;;;11.70;99583.00;;;;5110442;28;20655;-78
2020/12/05 12:15:27;;;;;;;2.47;1.58;;;;;11.70;99589.00;;;;5096061;28;20214;-78
2020/12/05 12:17:54;;;;;;;1.67;1.50;;;;;11.70;99579.00;;;;5093056;28;20194;-78
2020/12/05 12:20:21;;;;;;;2.08;1.50;;;;;11.70;99583.00;;;;5097578;28;20208;-77
2020/12/05 12:22:47;;;;;;;2.38;1.70;;;;;11.80;99584.00;;;;5068638;28;20297;-78
2020/12/05 12:25:14;;;;;;;2.33;1.60;;;;;11.80;99580.00;;;;5078247;28;20203;-79
2020/12/05 12:27:42;;;;;;;1.60;1.35;;;;;11.80;99578.00;;;;5094487;28;20201;-78
2020/12/05 12:30:08;;;;;;;3.33;1.50;;;;;11.80;99576.00;;;;5094603;28;20194;-79
2020/12/05 12:32:35;;;;;;;2.40;1.45;;;;;11.90;99584.00;;;;5067471;28;20700;-79
2020/12/05 12:35:02;;;;;;;1.83;1.60;;;;;11.90;99579.00;;;;5079903;28;20646;-78